Rhapsody — IBQF — position and weather

sailwx.info

Track history (hours):
 
Tides and Currents Weather Stations Pressure Air Temp Water Temp Dewpoint Dewpoint Depression Visibility Wind Speed Wind Dir Waves Ship Positions

Rhapsody

Operator: Mediterranean Shipping Company

Last reported at 2017-Apr-29 03:51 UTC. Time now 2017-Apr-29 13:29 UTC.
Position N 39°39' W 072°54'.

Length 180 m; draft 8.3 m.

Type: Ship. MMSI: 247283200.

Date/timePositionNaut miles runAvg speedWind from/ knotsBaromVisibWave heightAir tempDewpointWater temp
2017-Apr-29 03:51N 39°39' W 072°54'412.6
2017-Apr-29 03:31N 39°43' W 072°57'612.7
2017-Apr-29 03:00N 39°47' W 073°03'712.7
2017-Apr-29 02:29N 39°52' W 073°09'712.7
2017-Apr-29 01:57N 39°57' W 073°15'2212.3
2017-Apr-29 00:12N 40°13' W 073°34'312.0
2017-Apr-28 23:58N 40°15' W 073°36'611.8
2017-Apr-28 23:30N 40°19' W 073°41'611.7
2017-Apr-28 23:00N 40°24' W 073°46'4 9.0
2017-Apr-28 22:30N 40°27' W 073°50'510.1
2017-Apr-28 22:00N 40°30' W 073°56'611.5
2017-Apr-28 21:30N 40°33' W 074°02'5 9.4
2017-Apr-28 21:00N 40°38' W 074°03'2 3.9
2017-Apr-28 20:30N 40°39' W 074°05'0 0.1
2017-Apr-28 20:00N 40°39' W 074°05'0 0.0
2017-Apr-28 19:30N 40°39' W 074°05'0 0.0
2017-Apr-28 18:57N 40°39' W 074°05'0 0.0
2017-Apr-28 18:30N 40°39' W 074°05'0 0.0
2017-Apr-28 18:00N 40°39' W 074°05'0 0.0
2017-Apr-28 17:30N 40°39' W 074°05'0 0.0
2017-Apr-28 17:00N 40°39' W 074°05'0 0.0
2017-Apr-28 16:30N 40°39' W 074°05'0 0.0
2017-Apr-28 16:00N 40°39' W 074°05'0 0.0
2017-Apr-28 15:30N 40°39' W 074°05'0 0.0
2017-Apr-28 15:00N 40°39' W 074°05'0 0.0
2017-Apr-28 14:00N 40°39' W 074°05'0 0.0
2017-Apr-28 13:30N 40°39' W 074°05'0 0.0
2017-Apr-28 13:00N 40°39' W 074°05'0 0.0
2017-Apr-28 12:30N 40°39' W 074°05'0 0.0
2017-Apr-28 12:00N 40°39' W 074°05'0 0.0
2017-Apr-28 11:30N 40°39' W 074°05'0 0.0
2017-Apr-28 11:00N 40°39' W 074°05'0 0.0
2017-Apr-28 10:30N 40°39' W 074°05'0 0.0
2017-Apr-28 10:00N 40°39' W 074°05'0 0.0
2017-Apr-28 09:30N 40°39' W 074°05'0 0.0
2017-Apr-28 09:00N 40°39' W 074°05'0 0.0
2017-Apr-28 08:30N 40°39' W 074°05'0 0.0
2017-Apr-28 08:00N 40°39' W 074°05'0 0.0
2017-Apr-28 07:30N 40°39' W 074°05'0 0.0
2017-Apr-28 07:00N 40°39' W 074°05'0 0.0
2017-Apr-28 06:30N 40°39' W 074°05'0 0.0
2017-Apr-28 06:00N 40°39' W 074°05'0 0.0
2017-Apr-28 05:30N 40°39' W 074°05'0 0.0
2017-Apr-28 05:00N 40°39' W 074°05'0 0.0
2017-Apr-28 04:30N 40°39' W 074°05'0 0.0
2017-Apr-28 04:00N 40°39' W 074°05'0 0.0
2017-Apr-28 03:30N 40°39' W 074°05'0 0.0
2017-Apr-28 03:00N 40°39' W 074°05'0 0.0
2017-Apr-28 02:30N 40°39' W 074°05'0 0.0
2017-Apr-28 02:00N 40°39' W 074°05'0 0.0
2017-Apr-28 01:30N 40°39' W 074°05'0 0.1
2017-Apr-28 01:00N 40°39' W 074°05'2 3.5
2017-Apr-28 00:30N 40°38' W 074°03'0 0.1
2017-Apr-28 00:00N 40°38' W 074°03'0 0.0
2017-Apr-27 23:30N 40°38' W 074°03'0 0.1
2017-Apr-27 23:00N 40°38' W 074°03'0 0.0
2017-Apr-27 22:30N 40°38' W 074°03'0 0.1
2017-Apr-27 22:00N 40°38' W 074°03'0 0.2
2017-Apr-27 21:30N 40°38' W 074°03'0 0.3
2017-Apr-27 21:00N 40°38' W 074°03'0 0.1
2017-Apr-27 20:30N 40°38' W 074°03'0 0.1
2017-Apr-27 20:00N 40°38' W 074°03'0 0.0
2017-Apr-27 19:30N 40°38' W 074°03'0 0.5
2017-Apr-27 19:01N 40°38' W 074°03'3 5.7
2017-Apr-27 18:31N 40°35' W 074°02'510.0
2017-Apr-27 18:01N 40°31' W 073°59'5 9.3
2017-Apr-27 17:31N 40°29' W 073°54'4 7.0
2017-Apr-27 17:00N 40°25' W 073°56'0 0.2
2017-Apr-27 15:39N 40°25' W 073°56'0 0.2
2017-Apr-27 15:17N 40°25' W 073°56'0 0.1
2017-Apr-27 14:17N 40°25' W 073°56'0 0.0
2017-Apr-27 13:05N 40°25' W 073°56'0 0.1
2017-Apr-27 12:59N 40°25' W 073°56'0 0.0
2017-Apr-27 12:29N 40°25' W 073°56'0 0.0
2017-Apr-27 11:59N 40°25' W 073°56'0 0.0
2017-Apr-27 09:59N 40°25' W 073°56'0 0.0
2017-Apr-27 09:08N 40°25' W 073°56'0 0.1
2017-Apr-27 08:59N 40°25' W 073°56'0 0.0
2017-Apr-27 04:58N 40°25' W 073°56'0 0.0
2017-Apr-27 04:28N 40°25' W 073°56'0 0.1
2017-Apr-27 02:18N 40°25' W 073°56'0 0.0
2017-Apr-27 01:51N 40°25' W 073°56'0 0.0
2017-Apr-27 01:27N 40°25' W 073°56'0 0.0
2017-Apr-26 23:12N 40°25' W 073°56'0 0.1
2017-Apr-26 23:00N 40°25' W 073°56'0 0.0
2017-Apr-26 20:30N 40°25' W 073°56'0 0.1
2017-Apr-26 17:52N 40°25' W 073°56'0 0.0
2017-Apr-26 17:29N 40°25' W 073°56'0 0.0
2017-Apr-26 16:16N 40°25' W 073°56'0 0.1
2017-Apr-26 13:39N 40°25' W 073°56'0 0.0
2017-Apr-26 10:40N 40°25' W 073°56'0 0.0
2017-Apr-26 10:28N 40°25' W 073°56'0 0.0
2017-Apr-26 09:58N 40°25' W 073°56'0 0.0
2017-Apr-26 09:28N 40°25' W 073°56'0 0.0
2017-Apr-26 08:55N 40°25' W 073°56'0 0.0
2017-Apr-26 01:59N 40°25' W 073°56'0 0.0
2017-Apr-26 01:26N 40°25' W 073°56'0 0.0
2017-Apr-26 00:59N 40°25' W 073°56'0 0.0
2017-Apr-26 00:26N 40°25' W 073°56'0 0.0
2017-Apr-25 23:59N 40°25' W 073°56'0 0.0
2017-Apr-25 23:29N 40°25' W 073°56'0 0.0
2017-Apr-25 22:59N 40°25' W 073°56'0 0.0
2017-Apr-25 22:29N 40°25' W 073°56'0 0.0
2017-Apr-25 21:59N 40°25' W 073°56'0 0.0
2017-Apr-25 21:29N 40°25' W 073°56'0 0.0
2017-Apr-25 20:56N 40°25' W 073°56'0 0.0
2017-Apr-25 20:29N 40°25' W 073°56'0 0.0
2017-Apr-25 19:59N 40°25' W 073°56'0 0.0
2017-Apr-25 19:29N 40°25' W 073°56'0 0.0
2017-Apr-25 17:05N 40°25' W 073°56'0 0.1
2017-Apr-25 16:44N 40°25' W 073°56'0 0.0
2017-Apr-25 16:29N 40°25' W 073°56'0 0.0
2017-Apr-25 15:23N 40°25' W 073°56'0 0.0
2017-Apr-25 14:44N 40°25' W 073°56'0 0.1
2017-Apr-25 14:29N 40°25' W 073°56'0 0.0
2017-Apr-25 12:41N 40°25' W 073°56'0 0.0
2017-Apr-25 11:47N 40°25' W 073°56'0 0.0
2017-Apr-25 11:23N 40°25' W 073°56'0 0.0
2017-Apr-25 10:59N 40°25' W 073°56'0 0.0
2017-Apr-25 10:11N 40°25' W 073°56'0 0.1
2017-Apr-25 09:59N 40°25' W 073°56'0 0.0
2017-Apr-25 08:29N 40°25' W 073°56'0 0.0
2017-Apr-25 07:59N 40°25' W 073°56'0 0.0
2017-Apr-25 04:44N 40°25' W 073°56'0 0.0
2017-Apr-25 04:14N 40°25' W 073°56'0 0.0
2017-Apr-25 03:53N 40°25' W 073°56'0 0.0
2017-Apr-25 03:29N 40°25' W 073°56'0 0.0
2017-Apr-25 02:44N 40°25' W 073°56'0 0.0
2017-Apr-25 02:29N 40°25' W 073°56'0 0.0
2017-Apr-25 01:59N 40°25' W 073°56'0 0.0
2017-Apr-25 00:17N 40°25' W 073°56'0 0.0
2017-Apr-24 23:59N 40°25' W 073°56'0 0.0
2017-Apr-24 23:08N 40°25' W 073°56'0 0.0
2017-Apr-24 22:53N 40°25' W 073°56'0 0.0
2017-Apr-24 22:26N 40°25' W 073°56'0 0.0
2017-Apr-24 21:38N 40°25' W 073°56'0 0.0
2017-Apr-24 21:23N 40°25' W 073°56'0 0.0
2017-Apr-24 20:53N 40°25' W 073°56'0 0.0
2017-Apr-24 20:29N 40°25' W 073°56'0 0.0
2017-Apr-24 19:59N 40°25' W 073°56'0 0.0
2017-Apr-24 17:17N 40°25' W 073°56'0 0.0
2017-Apr-24 16:05N 40°25' W 073°56'0 0.1
2017-Apr-24 15:53N 40°25' W 073°56'0 0.1
2017-Apr-24 15:23N 40°25' W 073°56'0 0.0
2017-Apr-24 14:53N 40°25' W 073°56'0 0.0
2017-Apr-24 14:26N 40°25' W 073°56'0 0.0
2017-Apr-24 13:29N 40°25' W 073°56'0 0.1
2017-Apr-24 12:50N 40°25' W 073°56'0 0.1
2017-Apr-24 12:29N 40°25' W 073°56'0 0.1
2017-Apr-24 11:59N 40°25' W 073°56'0 0.0
2017-Apr-24 11:29N 40°25' W 073°56'0 0.0
2017-Apr-24 10:59N 40°25' W 073°56'0 0.0
2017-Apr-24 10:17N 40°25' W 073°56'0 0.0
2017-Apr-24 09:53N 40°25' W 073°56'0 0.0
2017-Apr-24 09:29N 40°25' W 073°56'0 0.0
2017-Apr-24 08:59N 40°25' W 073°56'0 0.0
2017-Apr-24 08:20N 40°25' W 073°56'0 0.0
2017-Apr-24 07:29N 40°25' W 073°56'0 0.1
2017-Apr-24 06:59N 40°25' W 073°56'0 0.1
2017-Apr-24 06:29N 40°25' W 073°56'0 0.1
2017-Apr-24 05:59N 40°25' W 073°56'0 0.0
2017-Apr-24 05:29N 40°25' W 073°56'0 0.0
2017-Apr-24 04:59N 40°25' W 073°56'0 0.0
2017-Apr-24 04:29N 40°25' W 073°56'0 0.1
2017-Apr-24 03:59N 40°25' W 073°56'0 0.0
2017-Apr-24 03:29N 40°25' W 073°56'0 0.0
2017-Apr-24 00:59N 40°25' W 073°55'0 0.1
2017-Apr-24 00:26N 40°25' W 073°56'0 0.0
2017-Apr-23 23:59N 40°25' W 073°56'0 0.0
2017-Apr-23 23:29N 40°25' W 073°56'0 0.0
2017-Apr-23 22:53N 40°25' W 073°56'0 0.0
2017-Apr-23 22:29N 40°25' W 073°56'0 0.0
2017-Apr-23 21:59N 40°25' W 073°56'0 0.1
2017-Apr-23 21:20N 40°25' W 073°56'0 0.0
2017-Apr-23 19:29N 40°25' W 073°56'0 0.1
2017-Apr-23 18:56N 40°25' W 073°56'0 0.1
2017-Apr-23 17:26N 40°25' W 073°56'0 0.0
2017-Apr-23 16:41N 40°25' W 073°56'0 0.1
2017-Apr-23 16:29N 40°25' W 073°56'0 0.0
2017-Apr-23 15:59N 40°25' W 073°56'0 0.0
2017-Apr-23 15:17N 40°25' W 073°56'0 0.0
2017-Apr-23 14:53N 40°25' W 073°56'0 0.0
2017-Apr-23 13:41N 40°25' W 073°56'0 0.1
2017-Apr-23 13:29N 40°25' W 073°56'0 0.0
2017-Apr-23 12:59N 40°25' W 073°56'0 0.0
2017-Apr-23 12:17N 40°25' W 073°56'0 0.0
2017-Apr-23 06:20N 40°25' W 073°56'0 0.0
2017-Apr-23 04:38N 40°25' W 073°56'0 0.0
2017-Apr-23 04:29N 40°25' W 073°56'0 0.0
2017-Apr-23 03:56N 40°25' W 073°56'0 0.0
2017-Apr-23 03:29N 40°25' W 073°56'0 0.0
2017-Apr-23 02:47N 40°25' W 073°56'0 0.1
2017-Apr-23 02:29N 40°25' W 073°56'0 0.1
2017-Apr-23 01:59N 40°25' W 073°55'0 0.0
2017-Apr-23 01:23N 40°25' W 073°56'0 0.0
2017-Apr-23 00:59N 40°25' W 073°56'0 0.0
2017-Apr-23 00:26N 40°25' W 073°56'0 0.0
2017-Apr-22 23:59N 40°25' W 073°56'0 0.1
2017-Apr-22 23:29N 40°25' W 073°56'0 0.1
2017-Apr-22 22:32N 40°25' W 073°56'0 0.0
2017-Apr-22 20:17N 40°25' W 073°56'0 0.0
2017-Apr-22 19:29N 40°25' W 073°56'0 0.0
2017-Apr-22 15:41N 40°25' W 073°56'0 0.0
2017-Apr-22 15:29N 40°25' W 073°56'0 0.0
2017-Apr-22 14:56N 40°25' W 073°56'0 0.0
2017-Apr-22 14:29N 40°25' W 073°56'0 0.0
2017-Apr-22 13:23N 40°25' W 073°56'0 0.0
2017-Apr-22 12:59N 40°25' W 073°56'0 0.1
2017-Apr-22 12:23N 40°25' W 073°56'0 0.0
2017-Apr-22 11:59N 40°25' W 073°56'0 0.0
2017-Apr-22 08:26N 40°25' W 073°56'0 0.0
2017-Apr-22 03:11N 40°25' W 073°56'0 0.0
2017-Apr-22 02:59N 40°25' W 073°56'0 0.0
2017-Apr-22 02:29N 40°25' W 073°56'0 0.0
2017-Apr-22 01:59N 40°25' W 073°56'0 0.0
2017-Apr-22 01:29N 40°25' W 073°56'0 0.0
2017-Apr-22 00:53N 40°25' W 073°56'0 0.0
2017-Apr-22 00:23N 40°25' W 073°56'0 0.0
2017-Apr-21 10:35N 40°25' W 073°56'0 0.1
2017-Apr-21 10:26N 40°25' W 073°56'0 0.0
2017-Apr-21 07:47N 40°25' W 073°56'0 0.0
2017-Apr-21 07:29N 40°25' W 073°56'0 0.1
2017-Apr-21 06:56N 40°25' W 073°56'1 1.7
2017-Apr-21 06:28N 40°25' W 073°55'4 8.0
2017-Apr-21 06:00N 40°29' W 073°55'510.9
2017-Apr-21 05:30N 40°32' W 074°01'612.1
2017-Apr-21 05:00N 40°38' W 074°03'0 0.9
2017-Apr-21 04:29N 40°38' W 074°03'0 0.1
2017-Apr-21 03:59N 40°38' W 074°03'0 0.1
2017-Apr-21 03:29N 40°38' W 074°03'0 0.1
2017-Apr-21 02:59N 40°38' W 074°03'0 0.1
2017-Apr-21 02:29N 40°38' W 074°03'0 0.0
2017-Apr-21 01:59N 40°38' W 074°03'0 0.0
2017-Apr-21 01:29N 40°38' W 074°03'0 0.1
2017-Apr-21 00:59N 40°38' W 074°03'0 0.0
2017-Apr-21 00:29N 40°38' W 074°03'0 0.0
2017-Apr-20 23:59N 40°38' W 074°03'0 0.0
2017-Apr-20 23:29N 40°38' W 074°03'0 0.0
2017-Apr-20 22:59N 40°38' W 074°03'0 0.2
2017-Apr-20 22:29N 40°38' W 074°03'0 0.2
2017-Apr-20 21:59N 40°39' W 074°03'0 0.1
2017-Apr-20 21:29N 40°39' W 074°03'0 0.0
2017-Apr-20 20:59N 40°39' W 074°03'0 0.0
2017-Apr-20 20:29N 40°39' W 074°03'0 0.0
2017-Apr-20 19:59N 40°39' W 074°03'0 0.0
2017-Apr-20 19:29N 40°39' W 074°03'0 0.0
2017-Apr-20 18:59N 40°39' W 074°03'0 0.1
2017-Apr-20 18:29N 40°39' W 074°03'0 0.2
2017-Apr-20 17:59N 40°38' W 074°03'0 0.2
2017-Apr-20 17:29N 40°38' W 074°03'0 0.0
2017-Apr-20 17:00N 40°38' W 074°03'0 0.1
2017-Apr-20 16:29N 40°38' W 074°03'0 0.0
2017-Apr-20 15:59N 40°38' W 074°03'0 0.0
2017-Apr-20 15:29N 40°38' W 074°03'0 0.0
2017-Apr-20 14:59N 40°38' W 074°03'0 0.0
2017-Apr-20 13:59N 40°38' W 074°03'0 0.0
2017-Apr-20 13:29N 40°38' W 074°03'0 0.0
2017-Apr-20 12:59N 40°38' W 074°03'0 0.0
2017-Apr-20 12:29N 40°38' W 074°03'0 0.0
2017-Apr-20 11:59N 40°38' W 074°03'0 0.0
2017-Apr-20 11:29N 40°38' W 074°03'0 0.0
2017-Apr-20 10:59N 40°38' W 074°03'0 0.0
2017-Apr-20 10:29N 40°38' W 074°03'0 0.1
2017-Apr-20 09:59N 40°38' W 074°03'0 0.3
2017-Apr-20 09:29N 40°39' W 074°03'0 0.1
2017-Apr-20 08:59N 40°39' W 074°03'0 0.0
2017-Apr-20 08:29N 40°39' W 074°03'0 0.0
2017-Apr-20 07:59N 40°39' W 074°03'0 0.0
2017-Apr-20 07:29N 40°39' W 074°03'0 0.0
2017-Apr-20 06:59N 40°39' W 074°03'0 0.0
2017-Apr-20 06:29N 40°39' W 074°03'0 0.0
2017-Apr-20 05:59N 40°39' W 074°03'0 0.0
2017-Apr-20 05:29N 40°39' W 074°03'0 0.0
2017-Apr-20 04:59N 40°39' W 074°03'0 0.0
2017-Apr-20 04:29N 40°39' W 074°03'0 0.0
2017-Apr-20 03:59N 40°39' W 074°03'0 0.0
2017-Apr-20 03:29N 40°39' W 074°03'0 0.2
2017-Apr-20 02:59N 40°38' W 074°03'0 0.0
2017-Apr-20 02:29N 40°38' W 074°03'2 5.0
2017-Apr-20 02:00N 40°36' W 074°02'611.2
2017-Apr-20 01:30N 40°31' W 073°59'6 9.7
2017-Apr-20 00:52N 40°26' W 073°54'1 2.1
2017-Apr-20 00:11N 40°25' W 073°56'0 0.0
2017-Apr-19 22:20N 40°25' W 073°56'0 0.0
2017-Apr-19 21:02N 40°25' W 073°56'0 0.2
2017-Apr-19 20:56N 40°25' W 073°56'0 0.0
2017-Apr-19 20:26N 40°25' W 073°56'0 0.0
2017-Apr-19 19:59N 40°25' W 073°56'0 0.0
2017-Apr-19 19:29N 40°25' W 073°56'0 0.0
2017-Apr-19 18:47N 40°25' W 073°56'0 0.0
2017-Apr-19 17:56N 40°25' W 073°56'0 0.0
2017-Apr-19 17:26N 40°25' W 073°56'0 0.0
2017-Apr-19 16:56N 40°25' W 073°56'0 0.0
2017-Apr-19 16:26N 40°25' W 073°56'0 0.0
2017-Apr-19 15:56N 40°25' W 073°56'0 0.0
2017-Apr-19 15:26N 40°25' W 073°56'0 0.0
2017-Apr-19 14:56N 40°25' W 073°56'0 0.0
2017-Apr-19 14:26N 40°25' W 073°56'0 0.0
2017-Apr-19 13:23N 40°25' W 073°56'0 0.0
2017-Apr-19 12:59N 40°25' W 073°56'0 0.0
2017-Apr-19 12:23N 40°25' W 073°56'0 0.0
2017-Apr-19 11:59N 40°25' W 073°56'0 0.0
2017-Apr-19 11:29N 40°25' W 073°56'0 0.0
2017-Apr-19 10:59N 40°25' W 073°56'0 0.0
2017-Apr-19 10:23N 40°25' W 073°56'0 0.0
2017-Apr-19 09:59N 40°25' W 073°56'0 0.0
2017-Apr-19 09:29N 40°25' W 073°56'0 0.0
2017-Apr-19 08:56N 40°25' W 073°56'0 0.0
2017-Apr-19 08:26N 40°25' W 073°56'0 0.0
2017-Apr-19 07:56N 40°25' W 073°56'0 0.0
2017-Apr-19 07:20N 40°25' W 073°56'0 0.0
2017-Apr-19 06:59N 40°25' W 073°56'0 0.0
2017-Apr-19 05:29N 40°25' W 073°56'  
Track history (hours):
 
Tides and Currents Weather Stations Pressure Air Temp Water Temp Dewpoint Dewpoint Depression Visibility Wind Speed Wind Dir Waves Ship Positions

Rhapsody

Operator: Mediterranean Shipping Company

Last reported at 2017-Apr-29 03:51 UTC. Time now 2017-Apr-29 13:29 UTC.
Position N 39°39' W 072°54'.

Length 180 m; draft 8.3 m.

Type: Ship. MMSI: 247283200.

Date/timePositionNaut miles runAvg speedWind from/ knotsBaromVisibWave heightAir tempDewpointWater temp
2017-Apr-29 03:51N 39°39' W 072°54'412.6
2017-Apr-29 03:31N 39°43' W 072°57'612.7
2017-Apr-29 03:00N 39°47' W 073°03'712.7
2017-Apr-29 02:29N 39°52' W 073°09'712.7
2017-Apr-29 01:57N 39°57' W 073°15'2212.3
2017-Apr-29 00:12N 40°13' W 073°34'312.0
2017-Apr-28 23:58N 40°15' W 073°36'611.8
2017-Apr-28 23:30N 40°19' W 073°41'611.7
2017-Apr-28 23:00N 40°24' W 073°46'4 9.0
2017-Apr-28 22:30N 40°27' W 073°50'510.1
2017-Apr-28 22:00N 40°30' W 073°56'611.5
2017-Apr-28 21:30N 40°33' W 074°02'5 9.4
2017-Apr-28 21:00N 40°38' W 074°03'2 3.9
2017-Apr-28 20:30N 40°39' W 074°05'0 0.1
2017-Apr-28 20:00N 40°39' W 074°05'0 0.0
2017-Apr-28 19:30N 40°39' W 074°05'0 0.0
2017-Apr-28 18:57N 40°39' W 074°05'0 0.0
2017-Apr-28 18:30N 40°39' W 074°05'0 0.0
2017-Apr-28 18:00N 40°39' W 074°05'0 0.0
2017-Apr-28 17:30N 40°39' W 074°05'0 0.0
2017-Apr-28 17:00N 40°39' W 074°05'0 0.0
2017-Apr-28 16:30N 40°39' W 074°05'0 0.0
2017-Apr-28 16:00N 40°39' W 074°05'0 0.0
2017-Apr-28 15:30N 40°39' W 074°05'0 0.0
2017-Apr-28 15:00N 40°39' W 074°05'0 0.0
2017-Apr-28 14:00N 40°39' W 074°05'0 0.0
2017-Apr-28 13:30N 40°39' W 074°05'0 0.0
2017-Apr-28 13:00N 40°39' W 074°05'0 0.0
2017-Apr-28 12:30N 40°39' W 074°05'0 0.0
2017-Apr-28 12:00N 40°39' W 074°05'0 0.0
2017-Apr-28 11:30N 40°39' W 074°05'0 0.0
2017-Apr-28 11:00N 40°39' W 074°05'0 0.0
2017-Apr-28 10:30N 40°39' W 074°05'0 0.0
2017-Apr-28 10:00N 40°39' W 074°05'0 0.0
2017-Apr-28 09:30N 40°39' W 074°05'0 0.0
2017-Apr-28 09:00N 40°39' W 074°05'0 0.0
2017-Apr-28 08:30N 40°39' W 074°05'0 0.0
2017-Apr-28 08:00N 40°39' W 074°05'0 0.0
2017-Apr-28 07:30N 40°39' W 074°05'0 0.0
2017-Apr-28 07:00N 40°39' W 074°05'0 0.0
2017-Apr-28 06:30N 40°39' W 074°05'0 0.0
2017-Apr-28 06:00N 40°39' W 074°05'0 0.0
2017-Apr-28 05:30N 40°39' W 074°05'0 0.0
2017-Apr-28 05:00N 40°39' W 074°05'0 0.0
2017-Apr-28 04:30N 40°39' W 074°05'0 0.0
2017-Apr-28 04:00N 40°39' W 074°05'0 0.0
2017-Apr-28 03:30N 40°39' W 074°05'0 0.0
2017-Apr-28 03:00N 40°39' W 074°05'0 0.0
2017-Apr-28 02:30N 40°39' W 074°05'0 0.0
2017-Apr-28 02:00N 40°39' W 074°05'0 0.0
2017-Apr-28 01:30N 40°39' W 074°05'0 0.1
2017-Apr-28 01:00N 40°39' W 074°05'2 3.5
2017-Apr-28 00:30N 40°38' W 074°03'0 0.1
2017-Apr-28 00:00N 40°38' W 074°03'0 0.0
2017-Apr-27 23:30N 40°38' W 074°03'0 0.1
2017-Apr-27 23:00N 40°38' W 074°03'0 0.0
2017-Apr-27 22:30N 40°38' W 074°03'0 0.1
2017-Apr-27 22:00N 40°38' W 074°03'0 0.2
2017-Apr-27 21:30N 40°38' W 074°03'0 0.3
2017-Apr-27 21:00N 40°38' W 074°03'0 0.1
2017-Apr-27 20:30N 40°38' W 074°03'0 0.1
2017-Apr-27 20:00N 40°38' W 074°03'0 0.0
2017-Apr-27 19:30N 40°38' W 074°03'0 0.5
2017-Apr-27 19:01N 40°38' W 074°03'3 5.7
2017-Apr-27 18:31N 40°35' W 074°02'510.0
2017-Apr-27 18:01N 40°31' W 073°59'5 9.3
2017-Apr-27 17:31N 40°29' W 073°54'4 7.0
2017-Apr-27 17:00N 40°25' W 073°56'0 0.2
2017-Apr-27 15:39N 40°25' W 073°56'0 0.2
2017-Apr-27 15:17N 40°25' W 073°56'0 0.1
2017-Apr-27 14:17N 40°25' W 073°56'0 0.0
2017-Apr-27 13:05N 40°25' W 073°56'0 0.1
2017-Apr-27 12:59N 40°25' W 073°56'0 0.0
2017-Apr-27 12:29N 40°25' W 073°56'0 0.0
2017-Apr-27 11:59N 40°25' W 073°56'0 0.0
2017-Apr-27 09:59N 40°25' W 073°56'0 0.0
2017-Apr-27 09:08N 40°25' W 073°56'0 0.1
2017-Apr-27 08:59N 40°25' W 073°56'0 0.0
2017-Apr-27 04:58N 40°25' W 073°56'0 0.0
2017-Apr-27 04:28N 40°25' W 073°56'0 0.1
2017-Apr-27 02:18N 40°25' W 073°56'0 0.0
2017-Apr-27 01:51N 40°25' W 073°56'0 0.0
2017-Apr-27 01:27N 40°25' W 073°56'0 0.0
2017-Apr-26 23:12N 40°25' W 073°56'0 0.1
2017-Apr-26 23:00N 40°25' W 073°56'0 0.0
2017-Apr-26 20:30N 40°25' W 073°56'0 0.1
2017-Apr-26 17:52N 40°25' W 073°56'0 0.0
2017-Apr-26 17:29N 40°25' W 073°56'0 0.0
2017-Apr-26 16:16N 40°25' W 073°56'0 0.1
2017-Apr-26 13:39N 40°25' W 073°56'0 0.0
2017-Apr-26 10:40N 40°25' W 073°56'0 0.0
2017-Apr-26 10:28N 40°25' W 073°56'0 0.0
2017-Apr-26 09:58N 40°25' W 073°56'0 0.0
2017-Apr-26 09:28N 40°25' W 073°56'0 0.0
2017-Apr-26 08:55N 40°25' W 073°56'0 0.0
2017-Apr-26 01:59N 40°25' W 073°56'0 0.0
2017-Apr-26 01:26N 40°25' W 073°56'0 0.0
2017-Apr-26 00:59N 40°25' W 073°56'0 0.0
2017-Apr-26 00:26N 40°25' W 073°56'0 0.0
2017-Apr-25 23:59N 40°25' W 073°56'0 0.0
2017-Apr-25 23:29N 40°25' W 073°56'0 0.0
2017-Apr-25 22:59N 40°25' W 073°56'0 0.0
2017-Apr-25 22:29N 40°25' W 073°56'0 0.0
2017-Apr-25 21:59N 40°25' W 073°56'0 0.0
2017-Apr-25 21:29N 40°25' W 073°56'0 0.0
2017-Apr-25 20:56N 40°25' W 073°56'0 0.0
2017-Apr-25 20:29N 40°25' W 073°56'0 0.0
2017-Apr-25 19:59N 40°25' W 073°56'0 0.0
2017-Apr-25 19:29N 40°25' W 073°56'0 0.0
2017-Apr-25 17:05N 40°25' W 073°56'0 0.1
2017-Apr-25 16:44N 40°25' W 073°56'0 0.0
2017-Apr-25 16:29N 40°25' W 073°56'0 0.0
2017-Apr-25 15:23N 40°25' W 073°56'0 0.0
2017-Apr-25 14:44N 40°25' W 073°56'0 0.1
2017-Apr-25 14:29N 40°25' W 073°56'0 0.0
2017-Apr-25 12:41N 40°25' W 073°56'0 0.0
2017-Apr-25 11:47N 40°25' W 073°56'0 0.0
2017-Apr-25 11:23N 40°25' W 073°56'0 0.0
2017-Apr-25 10:59N 40°25' W 073°56'0 0.0
2017-Apr-25 10:11N 40°25' W 073°56'0 0.1
2017-Apr-25 09:59N 40°25' W 073°56'0 0.0
2017-Apr-25 08:29N 40°25' W 073°56'0 0.0
2017-Apr-25 07:59N 40°25' W 073°56'0 0.0
2017-Apr-25 04:44N 40°25' W 073°56'0 0.0
2017-Apr-25 04:14N 40°25' W 073°56'0 0.0
2017-Apr-25 03:53N 40°25' W 073°56'0 0.0
2017-Apr-25 03:29N 40°25' W 073°56'0 0.0
2017-Apr-25 02:44N 40°25' W 073°56'0 0.0
2017-Apr-25 02:29N 40°25' W 073°56'0 0.0
2017-Apr-25 01:59N 40°25' W 073°56'0 0.0
2017-Apr-25 00:17N 40°25' W 073°56'0 0.0
2017-Apr-24 23:59N 40°25' W 073°56'0 0.0
2017-Apr-24 23:08N 40°25' W 073°56'0 0.0
2017-Apr-24 22:53N 40°25' W 073°56'0 0.0
2017-Apr-24 22:26N 40°25' W 073°56'0 0.0
2017-Apr-24 21:38N 40°25' W 073°56'0 0.0
2017-Apr-24 21:23N 40°25' W 073°56'0 0.0
2017-Apr-24 20:53N 40°25' W 073°56'0 0.0
2017-Apr-24 20:29N 40°25' W 073°56'0 0.0
2017-Apr-24 19:59N 40°25' W 073°56'0 0.0
2017-Apr-24 17:17N 40°25' W 073°56'0 0.0
2017-Apr-24 16:05N 40°25' W 073°56'0 0.1
2017-Apr-24 15:53N 40°25' W 073°56'0 0.1
2017-Apr-24 15:23N 40°25' W 073°56'0 0.0
2017-Apr-24 14:53N 40°25' W 073°56'0 0.0
2017-Apr-24 14:26N 40°25' W 073°56'0 0.0
2017-Apr-24 13:29N 40°25' W 073°56'0 0.1
2017-Apr-24 12:50N 40°25' W 073°56'0 0.1
2017-Apr-24 12:29N 40°25' W 073°56'0 0.1
2017-Apr-24 11:59N 40°25' W 073°56'0 0.0
2017-Apr-24 11:29N 40°25' W 073°56'0 0.0
2017-Apr-24 10:59N 40°25' W 073°56'0 0.0
2017-Apr-24 10:17N 40°25' W 073°56'0 0.0
2017-Apr-24 09:53N 40°25' W 073°56'0 0.0
2017-Apr-24 09:29N 40°25' W 073°56'0 0.0
2017-Apr-24 08:59N 40°25' W 073°56'0 0.0
2017-Apr-24 08:20N 40°25' W 073°56'0 0.0
2017-Apr-24 07:29N 40°25' W 073°56'0 0.1
2017-Apr-24 06:59N 40°25' W 073°56'0 0.1
2017-Apr-24 06:29N 40°25' W 073°56'0 0.1
2017-Apr-24 05:59N 40°25' W 073°56'0 0.0
2017-Apr-24 05:29N 40°25' W 073°56'0 0.0
2017-Apr-24 04:59N 40°25' W 073°56'0 0.0
2017-Apr-24 04:29N 40°25' W 073°56'0 0.1
2017-Apr-24 03:59N 40°25' W 073°56'0 0.0
2017-Apr-24 03:29N 40°25' W 073°56'0 0.0
2017-Apr-24 00:59N 40°25' W 073°55'0 0.1
2017-Apr-24 00:26N 40°25' W 073°56'0 0.0
2017-Apr-23 23:59N 40°25' W 073°56'0 0.0
2017-Apr-23 23:29N 40°25' W 073°56'0 0.0
2017-Apr-23 22:53N 40°25' W 073°56'0 0.0
2017-Apr-23 22:29N 40°25' W 073°56'0 0.0
2017-Apr-23 21:59N 40°25' W 073°56'0 0.1
2017-Apr-23 21:20N 40°25' W 073°56'0 0.0
2017-Apr-23 19:29N 40°25' W 073°56'0 0.1
2017-Apr-23 18:56N 40°25' W 073°56'0 0.1
2017-Apr-23 17:26N 40°25' W 073°56'0 0.0
2017-Apr-23 16:41N 40°25' W 073°56'0 0.1
2017-Apr-23 16:29N 40°25' W 073°56'0 0.0
2017-Apr-23 15:59N 40°25' W 073°56'0 0.0
2017-Apr-23 15:17N 40°25' W 073°56'0 0.0
2017-Apr-23 14:53N 40°25' W 073°56'0 0.0
2017-Apr-23 13:41N 40°25' W 073°56'0 0.1
2017-Apr-23 13:29N 40°25' W 073°56'0 0.0
2017-Apr-23 12:59N 40°25' W 073°56'0 0.0
2017-Apr-23 12:17N 40°25' W 073°56'0 0.0
2017-Apr-23 06:20N 40°25' W 073°56'0 0.0
2017-Apr-23 04:38N 40°25' W 073°56'0 0.0
2017-Apr-23 04:29N 40°25' W 073°56'0 0.0
2017-Apr-23 03:56N 40°25' W 073°56'0 0.0
2017-Apr-23 03:29N 40°25' W 073°56'0 0.0
2017-Apr-23 02:47N 40°25' W 073°56'0 0.1
2017-Apr-23 02:29N 40°25' W 073°56'0 0.1
2017-Apr-23 01:59N 40°25' W 073°55'0 0.0
2017-Apr-23 01:23N 40°25' W 073°56'0 0.0
2017-Apr-23 00:59N 40°25' W 073°56'0 0.0
2017-Apr-23 00:26N 40°25' W 073°56'0 0.0
2017-Apr-22 23:59N 40°25' W 073°56'0 0.1
2017-Apr-22 23:29N 40°25' W 073°56'0 0.1
2017-Apr-22 22:32N 40°25' W 073°56'0 0.0
2017-Apr-22 20:17N 40°25' W 073°56'0 0.0
2017-Apr-22 19:29N 40°25' W 073°56'0 0.0
2017-Apr-22 15:41N 40°25' W 073°56'0 0.0
2017-Apr-22 15:29N 40°25' W 073°56'0 0.0
2017-Apr-22 14:56N 40°25' W 073°56'0 0.0
2017-Apr-22 14:29N 40°25' W 073°56'0 0.0
2017-Apr-22 13:23N 40°25' W 073°56'0 0.0
2017-Apr-22 12:59N 40°25' W 073°56'0 0.1
2017-Apr-22 12:23N 40°25' W 073°56'0 0.0
2017-Apr-22 11:59N 40°25' W 073°56'0 0.0
2017-Apr-22 08:26N 40°25' W 073°56'0 0.0
2017-Apr-22 03:11N 40°25' W 073°56'0 0.0
2017-Apr-22 02:59N 40°25' W 073°56'0 0.0
2017-Apr-22 02:29N 40°25' W 073°56'0 0.0
2017-Apr-22 01:59N 40°25' W 073°56'0 0.0
2017-Apr-22 01:29N 40°25' W 073°56'0 0.0
2017-Apr-22 00:53N 40°25' W 073°56'0 0.0
2017-Apr-22 00:23N 40°25' W 073°56'0 0.0
2017-Apr-21 10:35N 40°25' W 073°56'0 0.1
2017-Apr-21 10:26N 40°25' W 073°56'0 0.0
2017-Apr-21 07:47N 40°25' W 073°56'0 0.0
2017-Apr-21 07:29N 40°25' W 073°56'0 0.1
2017-Apr-21 06:56N 40°25' W 073°56'1 1.7
2017-Apr-21 06:28N 40°25' W 073°55'4 8.0
2017-Apr-21 06:00N 40°29' W 073°55'510.9
2017-Apr-21 05:30N 40°32' W 074°01'612.1
2017-Apr-21 05:00N 40°38' W 074°03'0 0.9
2017-Apr-21 04:29N 40°38' W 074°03'0 0.1
2017-Apr-21 03:59N 40°38' W 074°03'0 0.1
2017-Apr-21 03:29N 40°38' W 074°03'0 0.1
2017-Apr-21 02:59N 40°38' W 074°03'0 0.1
2017-Apr-21 02:29N 40°38' W 074°03'0 0.0
2017-Apr-21 01:59N 40°38' W 074°03'0 0.0
2017-Apr-21 01:29N 40°38' W 074°03'0 0.1
2017-Apr-21 00:59N 40°38' W 074°03'0 0.0
2017-Apr-21 00:29N 40°38' W 074°03'0 0.0
2017-Apr-20 23:59N 40°38' W 074°03'0 0.0
2017-Apr-20 23:29N 40°38' W 074°03'0 0.0
2017-Apr-20 22:59N 40°38' W 074°03'0 0.2
2017-Apr-20 22:29N 40°38' W 074°03'0 0.2
2017-Apr-20 21:59N 40°39' W 074°03'0 0.1
2017-Apr-20 21:29N 40°39' W 074°03'0 0.0
2017-Apr-20 20:59N 40°39' W 074°03'0 0.0
2017-Apr-20 20:29N 40°39' W 074°03'0 0.0
2017-Apr-20 19:59N 40°39' W 074°03'0 0.0
2017-Apr-20 19:29N 40°39' W 074°03'0 0.0
2017-Apr-20 18:59N 40°39' W 074°03'0 0.1
2017-Apr-20 18:29N 40°39' W 074°03'0 0.2
2017-Apr-20 17:59N 40°38' W 074°03'0 0.2
2017-Apr-20 17:29N 40°38' W 074°03'0 0.0
2017-Apr-20 17:00N 40°38' W 074°03'0 0.1
2017-Apr-20 16:29N 40°38' W 074°03'0 0.0
2017-Apr-20 15:59N 40°38' W 074°03'0 0.0
2017-Apr-20 15:29N 40°38' W 074°03'0 0.0
2017-Apr-20 14:59N 40°38' W 074°03'0 0.0
2017-Apr-20 13:59N 40°38' W 074°03'0 0.0
2017-Apr-20 13:29N 40°38' W 074°03'0 0.0
2017-Apr-20 12:59N 40°38' W 074°03'0 0.0
2017-Apr-20 12:29N 40°38' W 074°03'0 0.0
2017-Apr-20 11:59N 40°38' W 074°03'0 0.0
2017-Apr-20 11:29N 40°38' W 074°03'0 0.0
2017-Apr-20 10:59N 40°38' W 074°03'0 0.0
2017-Apr-20 10:29N 40°38' W 074°03'0 0.1
2017-Apr-20 09:59N 40°38' W 074°03'0 0.3
2017-Apr-20 09:29N 40°39' W 074°03'0 0.1
2017-Apr-20 08:59N 40°39' W 074°03'0 0.0
2017-Apr-20 08:29N 40°39' W 074°03'0 0.0
2017-Apr-20 07:59N 40°39' W 074°03'0 0.0
2017-Apr-20 07:29N 40°39' W 074°03'0 0.0
2017-Apr-20 06:59N 40°39' W 074°03'0 0.0
2017-Apr-20 06:29N 40°39' W 074°03'0 0.0
2017-Apr-20 05:59N 40°39' W 074°03'0 0.0
2017-Apr-20 05:29N 40°39' W 074°03'0 0.0
2017-Apr-20 04:59N 40°39' W 074°03'0 0.0
2017-Apr-20 04:29N 40°39' W 074°03'0 0.0
2017-Apr-20 03:59N 40°39' W 074°03'0 0.0
2017-Apr-20 03:29N 40°39' W 074°03'0 0.2
2017-Apr-20 02:59N 40°38' W 074°03'0 0.0
2017-Apr-20 02:29N 40°38' W 074°03'2 5.0
2017-Apr-20 02:00N 40°36' W 074°02'611.2
2017-Apr-20 01:30N 40°31' W 073°59'6 9.7
2017-Apr-20 00:52N 40°26' W 073°54'1 2.1
2017-Apr-20 00:11N 40°25' W 073°56'0 0.0
2017-Apr-19 22:20N 40°25' W 073°56'0 0.0
2017-Apr-19 21:02N 40°25' W 073°56'0 0.2
2017-Apr-19 20:56N 40°25' W 073°56'0 0.0
2017-Apr-19 20:26N 40°25' W 073°56'0 0.0
2017-Apr-19 19:59N 40°25' W 073°56'0 0.0
2017-Apr-19 19:29N 40°25' W 073°56'0 0.0
2017-Apr-19 18:47N 40°25' W 073°56'0 0.0
2017-Apr-19 17:56N 40°25' W 073°56'0 0.0
2017-Apr-19 17:26N 40°25' W 073°56'0 0.0
2017-Apr-19 16:56N 40°25' W 073°56'0 0.0
2017-Apr-19 16:26N 40°25' W 073°56'0 0.0
2017-Apr-19 15:56N 40°25' W 073°56'0 0.0
2017-Apr-19 15:26N 40°25' W 073°56'0 0.0
2017-Apr-19 14:56N 40°25' W 073°56'0 0.0
2017-Apr-19 14:26N 40°25' W 073°56'0 0.0
2017-Apr-19 13:23N 40°25' W 073°56'0 0.0
2017-Apr-19 12:59N 40°25' W 073°56'0 0.0
2017-Apr-19 12:23N 40°25' W 073°56'0 0.0
2017-Apr-19 11:59N 40°25' W 073°56'0 0.0
2017-Apr-19 11:29N 40°25' W 073°56'0 0.0
2017-Apr-19 10:59N 40°25' W 073°56'0 0.0
2017-Apr-19 10:23N 40°25' W 073°56'0 0.0
2017-Apr-19 09:59N 40°25' W 073°56'0 0.0
2017-Apr-19 09:29N 40°25' W 073°56'0 0.0
2017-Apr-19 08:56N 40°25' W 073°56'0 0.0
2017-Apr-19 08:26N 40°25' W 073°56'0 0.0
2017-Apr-19 07:56N 40°25' W 073°56'0 0.0
2017-Apr-19 07:20N 40°25' W 073°56'0 0.0
2017-Apr-19 06:59N 40°25' W 073°56'0 0.0
2017-Apr-19 05:29N 40°25' W 073°56'  

Dump ship's entire track history